sensor_id;sensor_type;location;lat;lon;timestamp;P1;durP1;ratioP1;P2;durP2;ratioP2
47804;SDS011;33568;45.286;9.900;2023-12-07T06:49:43;29.30;;;20.95;;
47804;SDS011;33568;45.286;9.900;2023-12-07T06:52:10;38.55;;;24.85;;
47804;SDS011;33568;45.286;9.900;2023-12-07T06:54:39;33.25;;;23.10;;
47804;SDS011;33568;45.286;9.900;2023-12-07T06:57:05;35.45;;;23.42;;
47804;SDS011;33568;45.286;9.900;2023-12-07T06:59:34;36.90;;;25.00;;
47804;SDS011;33568;45.286;9.900;2023-12-07T07:02:01;35.72;;;24.30;;
47804;SDS011;33568;45.286;9.900;2023-12-07T07:04:28;34.63;;;24.00;;
47804;SDS011;33568;45.286;9.900;2023-12-07T07:06:55;31.88;;;23.35;;
47804;SDS011;33568;45.286;9.900;2023-12-07T07:09:22;43.08;;;26.20;;
47804;SDS011;33568;45.286;9.900;2023-12-07T07:11:49;39.92;;;26.55;;
47804;SDS011;33568;45.286;9.900;2023-12-07T07:16:42;35.38;;;24.90;;
47804;SDS011;33568;45.286;9.900;2023-12-07T07:19:08;44.20;;;26.40;;
47804;SDS011;33568;45.286;9.900;2023-12-07T07:21:35;37.88;;;24.48;;
47804;SDS011;33568;45.286;9.900;2023-12-07T07:24:01;34.72;;;26.10;;
47804;SDS011;33568;45.286;9.900;2023-12-07T07:26:28;31.33;;;23.98;;
47804;SDS011;33568;45.286;9.900;2023-12-07T07:28:54;38.55;;;25.48;;
47804;SDS011;33568;45.286;9.900;2023-12-07T07:31:21;40.30;;;26.00;;
47804;SDS011;33568;45.286;9.900;2023-12-07T07:33:47;35.40;;;25.58;;
47804;SDS011;33568;45.286;9.900;2023-12-07T07:36:14;41.47;;;25.50;;
47804;SDS011;33568;45.286;9.900;2023-12-07T07:38:41;34.15;;;25.55;;
47804;SDS011;33568;45.286;9.900;2023-12-07T07:41:08;37.67;;;24.45;;
47804;SDS011;33568;45.286;9.900;2023-12-07T07:43:34;30.70;;;24.88;;
47804;SDS011;33568;45.286;9.900;2023-12-07T07:46:01;35.38;;;25.40;;
47804;SDS011;33568;45.286;9.900;2023-12-07T07:48:28;30.83;;;24.13;;
47804;SDS011;33568;45.286;9.900;2023-12-07T07:53:21;38.45;;;25.05;;
47804;SDS011;33568;45.286;9.900;2023-12-07T07:55:48;38.58;;;25.15;;
47804;SDS011;33568;45.286;9.900;2023-12-07T07:58:14;40.85;;;24.55;;
47804;SDS011;33568;45.286;9.900;2023-12-07T08:00:40;46.40;;;25.30;;
47804;SDS011;33568;45.286;9.900;2023-12-07T08:03:07;40.45;;;24.17;;
47804;SDS011;33568;45.286;9.900;2023-12-07T08:05:34;32.17;;;23.58;;
47804;SDS011;33568;45.286;9.900;2023-12-07T08:08:00;34.80;;;23.42;;
47804;SDS011;33568;45.286;9.900;2023-12-07T08:12:53;36.78;;;24.45;;
47804;SDS011;33568;45.286;9.900;2023-12-07T08:17:47;35.08;;;23.60;;
47804;SDS011;33568;45.286;9.900;2023-12-07T08:22:40;38.22;;;23.98;;
47804;SDS011;33568;45.286;9.900;2023-12-07T08:27:36;46.83;;;27.33;;
47804;SDS011;33568;45.286;9.900;2023-12-07T08:30:04;36.00;;;23.90;;
47804;SDS011;33568;45.286;9.900;2023-12-07T08:32:32;29.67;;;22.10;;
47804;SDS011;33568;45.286;9.900;2023-12-07T08:34:58;32.92;;;24.67;;
47804;SDS011;33568;45.286;9.900;2023-12-07T08:37:24;34.38;;;24.08;;
47804;SDS011;33568;45.286;9.900;2023-12-07T08:42:17;37.10;;;22.17;;
47804;SDS011;33568;45.286;9.900;2023-12-07T08:47:10;30.67;;;22.70;;
47804;SDS011;33568;45.286;9.900;2023-12-07T08:52:03;33.63;;;24.63;;
47804;SDS011;33568;45.286;9.900;2023-12-07T08:54:29;34.17;;;25.25;;
47804;SDS011;33568;45.286;9.900;2023-12-07T08:56:56;32.03;;;24.77;;
47804;SDS011;33568;45.286;9.900;2023-12-07T08:59:22;38.92;;;25.98;;
47804;SDS011;33568;45.286;9.900;2023-12-07T09:01:48;39.35;;;25.15;;
47804;SDS011;33568;45.286;9.900;2023-12-07T09:04:15;34.72;;;24.13;;
47804;SDS011;33568;45.286;9.900;2023-12-07T09:06:41;34.08;;;24.90;;
47804;SDS011;33568;45.286;9.900;2023-12-07T09:09:08;32.88;;;25.17;;
47804;SDS011;33568;45.286;9.900;2023-12-07T09:14:00;40.80;;;24.52;;
47804;SDS011;33568;45.286;9.900;2023-12-07T09:16:27;37.63;;;25.92;;
47804;SDS011;33568;45.286;9.900;2023-12-07T09:18:53;39.17;;;25.55;;
47804;SDS011;33568;45.286;9.900;2023-12-07T09:21:20;37.78;;;26.05;;
47804;SDS011;33568;45.286;9.900;2023-12-07T09:23:46;34.53;;;26.35;;
47804;SDS011;33568;45.286;9.900;2023-12-07T09:28:39;36.20;;;26.20;;
47804;SDS011;33568;45.286;9.900;2023-12-07T09:31:05;37.25;;;25.88;;
47804;SDS011;33568;45.286;9.900;2023-12-07T09:33:33;34.95;;;25.38;;
47804;SDS011;33568;45.286;9.900;2023-12-07T09:35:59;32.97;;;23.52;;
47804;SDS011;33568;45.286;9.900;2023-12-07T09:38:25;27.38;;;20.90;;
47804;SDS011;33568;45.286;9.900;2023-12-07T09:40:52;30.40;;;21.10;;
47804;SDS011;33568;45.286;9.900;2023-12-07T09:43:19;24.33;;;19.15;;
47804;SDS011;33568;45.286;9.900;2023-12-07T09:48:12;32.33;;;18.95;;
47804;SDS011;33568;45.286;9.900;2023-12-07T09:53:05;22.08;;;19.15;;
47804;SDS011;33568;45.286;9.900;2023-12-07T09:55:34;28.00;;;19.70;;
47804;SDS011;33568;45.286;9.900;2023-12-07T09:58:03;26.35;;;20.13;;
47804;SDS011;33568;45.286;9.900;2023-12-07T10:00:30;24.35;;;19.83;;
47804;SDS011;33568;45.286;9.900;2023-12-07T10:05:23;22.08;;;19.20;;
47804;SDS011;33568;45.286;9.900;2023-12-07T10:07:50;21.15;;;18.90;;
47804;SDS011;33568;45.286;9.900;2023-12-07T10:10:17;21.27;;;18.98;;
47804;SDS011;33568;45.286;9.900;2023-12-07T10:12:48;24.08;;;17.92;;
47804;SDS011;33568;45.286;9.900;2023-12-07T10:15:22;21.38;;;18.83;;
47804;SDS011;33568;45.286;9.900;2023-12-07T10:20:17;23.60;;;17.75;;
47804;SDS011;33568;45.286;9.900;2023-12-07T10:23:03;24.17;;;20.20;;
47804;SDS011;33568;45.286;9.900;2023-12-07T10:25:33;21.02;;;18.50;;
47804;SDS011;33568;45.286;9.900;2023-12-07T10:28:02;23.38;;;17.75;;
47804;SDS011;33568;45.286;9.900;2023-12-07T10:30:32;21.60;;;17.85;;
47804;SDS011;33568;45.286;9.900;2023-12-07T10:33:03;24.73;;;17.60;;
47804;SDS011;33568;45.286;9.900;2023-12-07T10:35:30;24.02;;;17.25;;
47804;SDS011;33568;45.286;9.900;2023-12-07T10:37:57;20.75;;;16.92;;
47804;SDS011;33568;45.286;9.900;2023-12-07T10:42:50;21.77;;;17.20;;
47804;SDS011;33568;45.286;9.900;2023-12-07T10:45:21;17.48;;;15.73;;
47804;SDS011;33568;45.286;9.900;2023-12-07T10:47:50;23.52;;;17.13;;
47804;SDS011;33568;45.286;9.900;2023-12-07T10:50:21;17.67;;;15.52;;
47804;SDS011;33568;45.286;9.900;2023-12-07T10:52:52;17.33;;;13.60;;
47804;SDS011;33568;45.286;9.900;2023-12-07T10:55:20;19.75;;;15.07;;
47804;SDS011;33568;45.286;9.900;2023-12-07T10:57:55;17.00;;;14.85;;
47804;SDS011;33568;45.286;9.900;2023-12-07T11:00:22;21.02;;;14.80;;
47804;SDS011;33568;45.286;9.900;2023-12-07T11:02:53;17.55;;;15.85;;
47804;SDS011;33568;45.286;9.900;2023-12-07T11:05:20;16.00;;;14.38;;
47804;SDS011;33568;45.286;9.900;2023-12-07T11:10:33;19.05;;;15.45;;
47804;SDS011;33568;45.286;9.900;2023-12-07T11:13:24;15.90;;;14.30;;
47804;SDS011;33568;45.286;9.900;2023-12-07T11:15:56;50.17;;;44.72;;
47804;SDS011;33568;45.286;9.900;2023-12-07T11:18:29;18.10;;;14.93;;
47804;SDS011;33568;45.286;9.900;2023-12-07T11:20:55;15.65;;;14.25;;
47804;SDS011;33568;45.286;9.900;2023-12-07T11:23:23;18.08;;;14.55;;
47804;SDS011;33568;45.286;9.900;2023-12-07T11:25:51;17.23;;;15.10;;
47804;SDS011;33568;45.286;9.900;2023-12-07T11:28:18;18.40;;;15.07;;
47804;SDS011;33568;45.286;9.900;2023-12-07T11:31:00;17.70;;;15.82;;
47804;SDS011;33568;45.286;9.900;2023-12-07T11:33:30;21.85;;;15.88;;
47804;SDS011;33568;45.286;9.900;2023-12-07T11:36:04;22.77;;;19.92;;
47804;SDS011;33568;45.286;9.900;2023-12-07T11:38:32;26.75;;;24.02;;
47804;SDS011;33568;45.286;9.900;2023-12-07T11:40:59;19.27;;;15.27;;
47804;SDS011;33568;45.286;9.900;2023-12-07T11:45:59;29.55;;;26.00;;
47804;SDS011;33568;45.286;9.900;2023-12-07T11:48:25;19.55;;;17.60;;
47804;SDS011;33568;45.286;9.900;2023-12-07T11:53:32;85.63;;;76.78;;
47804;SDS011;33568;45.286;9.900;2023-12-07T11:56:00;25.27;;;18.40;;
47804;SDS011;33568;45.286;9.900;2023-12-07T11:58:29;28.70;;;25.92;;
47804;SDS011;33568;45.286;9.900;2023-12-07T12:00:56;20.17;;;17.17;;
47804;SDS011;33568;45.286;9.900;2023-12-07T12:03:24;19.45;;;16.90;;
47804;SDS011;33568;45.286;9.900;2023-12-07T12:05:51;19.88;;;17.67;;
47804;SDS011;33568;45.286;9.900;2023-12-07T12:08:18;26.60;;;19.35;;
47804;SDS011;33568;45.286;9.900;2023-12-07T12:10:45;22.08;;;18.08;;
47804;SDS011;33568;45.286;9.900;2023-12-07T12:13:12;19.48;;;17.48;;
47804;SDS011;33568;45.286;9.900;2023-12-07T12:15:39;19.98;;;17.80;;
47804;SDS011;33568;45.286;9.900;2023-12-07T12:18:06;19.73;;;17.40;;
47804;SDS011;33568;45.286;9.900;2023-12-07T12:20:33;21.25;;;18.98;;
47804;SDS011;33568;45.286;9.900;2023-12-07T12:23:00;24.17;;;20.10;;
47804;SDS011;33568;45.286;9.900;2023-12-07T12:25:28;26.63;;;20.60;;
47804;SDS011;33568;45.286;9.900;2023-12-07T12:27:57;25.73;;;20.08;;
47804;SDS011;33568;45.286;9.900;2023-12-07T12:30:26;25.80;;;19.45;;
47804;SDS011;33568;45.286;9.900;2023-12-07T12:32:54;25.45;;;19.33;;
47804;SDS011;33568;45.286;9.900;2023-12-07T12:35:21;23.63;;;20.52;;
47804;SDS011;33568;45.286;9.900;2023-12-07T12:37:48;27.33;;;20.98;;
47804;SDS011;33568;45.286;9.900;2023-12-07T12:40:16;30.30;;;25.10;;
47804;SDS011;33568;45.286;9.900;2023-12-07T12:42:45;24.17;;;19.75;;
47804;SDS011;33568;45.286;9.900;2023-12-07T12:45:16;23.40;;;20.58;;
47804;SDS011;33568;45.286;9.900;2023-12-07T12:47:47;28.17;;;24.27;;
47804;SDS011;33568;45.286;9.900;2023-12-07T12:50:36;29.38;;;19.90;;
47804;SDS011;33568;45.286;9.900;2023-12-07T12:53:04;28.20;;;21.05;;
47804;SDS011;33568;45.286;9.900;2023-12-07T12:55:33;28.80;;;24.95;;
47804;SDS011;33568;45.286;9.900;2023-12-07T12:58:03;23.33;;;18.60;;
47804;SDS011;33568;45.286;9.900;2023-12-07T13:00:33;21.83;;;18.67;;
47804;SDS011;33568;45.286;9.900;2023-12-07T13:03:03;26.92;;;19.27;;
47804;SDS011;33568;45.286;9.900;2023-12-07T13:05:31;22.67;;;17.95;;
47804;SDS011;33568;45.286;9.900;2023-12-07T13:08:02;22.30;;;19.90;;
47804;SDS011;33568;45.286;9.900;2023-12-07T13:10:29;25.08;;;18.65;;
47804;SDS011;33568;45.286;9.900;2023-12-07T13:12:56;35.05;;;23.25;;
47804;SDS011;33568;45.286;9.900;2023-12-07T13:15:23;25.08;;;21.55;;
47804;SDS011;33568;45.286;9.900;2023-12-07T13:17:51;22.83;;;19.60;;
47804;SDS011;33568;45.286;9.900;2023-12-07T13:20:17;28.00;;;21.95;;
47804;SDS011;33568;45.286;9.900;2023-12-07T13:22:43;33.53;;;26.05;;
47804;SDS011;33568;45.286;9.900;2023-12-07T13:25:10;109.85;;;76.05;;
47804;SDS011;33568;45.286;9.900;2023-12-07T13:27:41;177.43;;;123.15;;
47804;SDS011;33568;45.286;9.900;2023-12-07T13:30:09;149.70;;;112.60;;
47804;SDS011;33568;45.286;9.900;2023-12-07T13:32:36;66.93;;;51.65;;
47804;SDS011;33568;45.286;9.900;2023-12-07T13:35:03;22.75;;;18.15;;
47804;SDS011;33568;45.286;9.900;2023-12-07T13:37:31;27.38;;;17.73;;
47804;SDS011;33568;45.286;9.900;2023-12-07T13:39:58;36.50;;;26.63;;
47804;SDS011;33568;45.286;9.900;2023-12-07T13:42:25;23.20;;;18.50;;
47804;SDS011;33568;45.286;9.900;2023-12-07T13:44:54;62.97;;;48.80;;
47804;SDS011;33568;45.286;9.900;2023-12-07T13:47:26;33.25;;;23.30;;
47804;SDS011;33568;45.286;9.900;2023-12-07T13:50:02;21.88;;;17.83;;
47804;SDS011;33568;45.286;9.900;2023-12-07T13:52:30;20.33;;;15.43;;
47804;SDS011;33568;45.286;9.900;2023-12-07T13:57:23;24.52;;;18.88;;
47804;SDS011;33568;45.286;9.900;2023-12-07T14:02:16;25.55;;;18.02;;
47804;SDS011;33568;45.286;9.900;2023-12-07T14:04:44;22.85;;;18.90;;
47804;SDS011;33568;45.286;9.900;2023-12-07T14:07:12;17.98;;;13.82;;
47804;SDS011;33568;45.286;9.900;2023-12-07T14:09:41;48.95;;;38.97;;
47804;SDS011;33568;45.286;9.900;2023-12-07T14:12:09;25.95;;;18.45;;
47804;SDS011;33568;45.286;9.900;2023-12-07T14:14:40;48.20;;;30.05;;
47804;SDS011;33568;45.286;9.900;2023-12-07T14:17:08;21.40;;;15.40;;
47804;SDS011;33568;45.286;9.900;2023-12-07T14:19:34;28.05;;;22.27;;
47804;SDS011;33568;45.286;9.900;2023-12-07T14:24:28;20.47;;;15.47;;
47804;SDS011;33568;45.286;9.900;2023-12-07T14:26:56;62.17;;;40.22;;
47804;SDS011;33568;45.286;9.900;2023-12-07T14:29:23;35.00;;;21.17;;
47804;SDS011;33568;45.286;9.900;2023-12-07T14:31:51;22.92;;;16.92;;
47804;SDS011;33568;45.286;9.900;2023-12-07T14:34:17;24.10;;;16.23;;
47804;SDS011;33568;45.286;9.900;2023-12-07T14:36:45;15.80;;;13.15;;
47804;SDS011;33568;45.286;9.900;2023-12-07T14:39:12;17.48;;;14.70;;
47804;SDS011;33568;45.286;9.900;2023-12-07T14:41:46;20.25;;;15.68;;
47804;SDS011;33568;45.286;9.900;2023-12-07T14:44:13;17.35;;;13.70;;
47804;SDS011;33568;45.286;9.900;2023-12-07T14:46:42;22.70;;;17.48;;
47804;SDS011;33568;45.286;9.900;2023-12-07T14:49:11;23.48;;;17.98;;
47804;SDS011;33568;45.286;9.900;2023-12-07T14:51:38;24.88;;;15.52;;
47804;SDS011;33568;45.286;9.900;2023-12-07T14:56:31;24.23;;;16.25;;
47804;SDS011;33568;45.286;9.900;2023-12-07T14:59:00;27.50;;;21.95;;
47804;SDS011;33568;45.286;9.900;2023-12-07T15:01:26;36.95;;;22.00;;
47804;SDS011;33568;45.286;9.900;2023-12-07T15:03:53;25.73;;;17.70;;
47804;SDS011;33568;45.286;9.900;2023-12-07T15:06:20;27.15;;;19.88;;
47804;SDS011;33568;45.286;9.900;2023-12-07T15:08:47;21.38;;;17.27;;
47804;SDS011;33568;45.286;9.900;2023-12-07T15:11:13;22.23;;;17.40;;
47804;SDS011;33568;45.286;9.900;2023-12-07T15:13:40;25.27;;;17.25;;
47804;SDS011;33568;45.286;9.900;2023-12-07T15:16:07;29.45;;;17.27;;
47804;SDS011;33568;45.286;9.900;2023-12-07T15:18:34;26.23;;;17.92;;
47804;SDS011;33568;45.286;9.900;2023-12-07T15:21:05;25.08;;;18.20;;
47804;SDS011;33568;45.286;9.900;2023-12-07T15:23:31;24.95;;;16.58;;
47804;SDS011;33568;45.286;9.900;2023-12-07T15:25:58;23.33;;;16.70;;
47804;SDS011;33568;45.286;9.900;2023-12-07T15:28:24;25.08;;;19.00;;
47804;SDS011;33568;45.286;9.900;2023-12-07T15:30:51;24.77;;;16.45;;
47804;SDS011;33568;45.286;9.900;2023-12-07T15:33:17;24.45;;;15.93;;
47804;SDS011;33568;45.286;9.900;2023-12-07T15:35:44;25.98;;;15.93;;
47804;SDS011;33568;45.286;9.900;2023-12-07T15:40:37;22.20;;;16.48;;
47804;SDS011;33568;45.286;9.900;2023-12-07T15:43:04;20.77;;;15.90;;
47804;SDS011;33568;45.286;9.900;2023-12-07T15:47:57;21.15;;;15.75;;
47804;SDS011;33568;45.286;9.900;2023-12-07T15:50:23;24.17;;;16.90;;
47804;SDS011;33568;45.286;9.900;2023-12-07T15:52:49;26.42;;;16.40;;
47804;SDS011;33568;45.286;9.900;2023-12-07T15:55:16;25.30;;;17.20;;
47804;SDS011;33568;45.286;9.900;2023-12-07T15:57:43;23.13;;;16.33;;
47804;SDS011;33568;45.286;9.900;2023-12-07T16:00:09;26.88;;;18.23;;
47804;SDS011;33568;45.286;9.900;2023-12-07T16:02:36;24.17;;;17.13;;
47804;SDS011;33568;45.286;9.900;2023-12-07T16:05:03;24.42;;;15.63;;
47804;SDS011;33568;45.286;9.900;2023-12-07T16:07:32;28.67;;;17.00;;
47804;SDS011;33568;45.286;9.900;2023-12-07T16:09:59;30.35;;;18.85;;
47804;SDS011;33568;45.286;9.900;2023-12-07T16:12:25;29.83;;;18.42;;
47804;SDS011;33568;45.286;9.900;2023-12-07T16:17:21;26.48;;;17.25;;
47804;SDS011;33568;45.286;9.900;2023-12-07T16:19:48;27.25;;;18.25;;
47804;SDS011;33568;45.286;9.900;2023-12-07T16:22:14;24.67;;;16.77;;
47804;SDS011;33568;45.286;9.900;2023-12-07T16:27:07;32.65;;;17.00;;
47804;SDS011;33568;45.286;9.900;2023-12-07T16:32:00;32.15;;;18.55;;
47804;SDS011;33568;45.286;9.900;2023-12-07T16:34:29;31.77;;;20.30;;
47804;SDS011;33568;45.286;9.900;2023-12-07T16:36:56;33.30;;;21.67;;
47804;SDS011;33568;45.286;9.900;2023-12-07T16:39:23;34.45;;;22.77;;
47804;SDS011;33568;45.286;9.900;2023-12-07T16:41:51;36.92;;;22.38;;
47804;SDS011;33568;45.286;9.900;2023-12-07T16:44:17;32.55;;;22.13;;
47804;SDS011;33568;45.286;9.900;2023-12-07T16:46:44;28.30;;;20.27;;
47804;SDS011;33568;45.286;9.900;2023-12-07T16:49:14;35.80;;;19.17;;
47804;SDS011;33568;45.286;9.900;2023-12-07T16:51:41;28.65;;;18.17;;
47804;SDS011;33568;45.286;9.900;2023-12-07T16:54:07;27.75;;;16.85;;
47804;SDS011;33568;45.286;9.900;2023-12-07T16:56:33;22.63;;;16.33;;
47804;SDS011;33568;45.286;9.900;2023-12-07T16:59:00;27.30;;;16.30;;
47804;SDS011;33568;45.286;9.900;2023-12-07T17:01:27;27.35;;;18.02;;
47804;SDS011;33568;45.286;9.900;2023-12-07T17:03:53;22.73;;;16.10;;
47804;SDS011;33568;45.286;9.900;2023-12-07T17:06:20;25.98;;;16.58;;
47804;SDS011;33568;45.286;9.900;2023-12-07T17:08:46;24.65;;;16.55;;
47804;SDS011;33568;45.286;9.900;2023-12-07T17:13:39;32.28;;;19.98;;
47804;SDS011;33568;45.286;9.900;2023-12-07T17:16:06;34.83;;;22.15;;
47804;SDS011;33568;45.286;9.900;2023-12-07T17:18:35;37.20;;;26.17;;
47804;SDS011;33568;45.286;9.900;2023-12-07T17:21:01;39.75;;;26.42;;
47804;SDS011;33568;45.286;9.900;2023-12-07T17:23:29;51.85;;;32.88;;
47804;SDS011;33568;45.286;9.900;2023-12-07T17:25:55;46.53;;;31.67;;
47804;SDS011;33568;45.286;9.900;2023-12-07T17:30:48;69.03;;;40.35;;
47804;SDS011;33568;45.286;9.900;2023-12-07T17:33:15;64.43;;;40.25;;
47804;SDS011;33568;45.286;9.900;2023-12-07T17:38:07;52.05;;;35.85;;
47804;SDS011;33568;45.286;9.900;2023-12-07T17:43:00;54.97;;;38.83;;
47804;SDS011;33568;45.286;9.900;2023-12-07T17:47:53;59.13;;;39.17;;
47804;SDS011;33568;45.286;9.900;2023-12-07T17:52:45;62.58;;;37.15;;
47804;SDS011;33568;45.286;9.900;2023-12-07T17:57:38;55.35;;;35.80;;
47804;SDS011;33568;45.286;9.900;2023-12-07T18:00:05;60.80;;;38.70;;
47804;SDS011;33568;45.286;9.900;2023-12-07T18:02:34;55.33;;;36.13;;
47804;SDS011;33568;45.286;9.900;2023-12-07T18:05:00;52.63;;;38.15;;
47804;SDS011;33568;45.286;9.900;2023-12-07T18:09:53;55.13;;;36.55;;
47804;SDS011;33568;45.286;9.900;2023-12-07T18:12:19;49.72;;;34.78;;
47804;SDS011;33568;45.286;9.900;2023-12-07T18:14:46;51.28;;;36.40;;
47804;SDS011;33568;45.286;9.900;2023-12-07T18:19:40;48.13;;;33.78;;
47804;SDS011;33568;45.286;9.900;2023-12-07T18:22:06;56.40;;;35.50;;
47804;SDS011;33568;45.286;9.900;2023-12-07T18:24:32;46.90;;;35.20;;
47804;SDS011;33568;45.286;9.900;2023-12-07T18:26:59;53.05;;;34.63;;
47804;SDS011;33568;45.286;9.900;2023-12-07T18:29:25;49.13;;;35.25;;
47804;SDS011;33568;45.286;9.900;2023-12-07T18:31:52;49.75;;;35.30;;
47804;SDS011;33568;45.286;9.900;2023-12-07T18:34:18;52.90;;;35.88;;
47804;SDS011;33568;45.286;9.900;2023-12-07T18:36:46;56.15;;;37.85;;
47804;SDS011;33568;45.286;9.900;2023-12-07T18:39:12;58.53;;;36.60;;
47804;SDS011;33568;45.286;9.900;2023-12-07T18:44:05;49.35;;;36.58;;
47804;SDS011;33568;45.286;9.900;2023-12-07T18:48:58;58.88;;;41.33;;
47804;SDS011;33568;45.286;9.900;2023-12-07T18:51:24;77.88;;;46.50;;
47804;SDS011;33568;45.286;9.900;2023-12-07T18:53:51;89.78;;;49.78;;
47804;SDS011;33568;45.286;9.900;2023-12-07T18:56:17;74.20;;;41.88;;
47804;SDS011;33568;45.286;9.900;2023-12-07T18:58:43;55.60;;;39.38;;
47804;SDS011;33568;45.286;9.900;2023-12-07T19:01:10;52.53;;;36.90;;
47804;SDS011;33568;45.286;9.900;2023-12-07T19:03:37;50.25;;;33.88;;
47804;SDS011;33568;45.286;9.900;2023-12-07T19:06:04;42.88;;;32.35;;
47804;SDS011;33568;45.286;9.900;2023-12-07T19:08:31;47.42;;;33.20;;
47804;SDS011;33568;45.286;9.900;2023-12-07T19:10:57;44.58;;;30.67;;
47804;SDS011;33568;45.286;9.900;2023-12-07T19:15:50;38.90;;;27.77;;
47804;SDS011;33568;45.286;9.900;2023-12-07T19:18:17;40.35;;;28.83;;
47804;SDS011;33568;45.286;9.900;2023-12-07T19:20:44;42.72;;;29.92;;
47804;SDS011;33568;45.286;9.900;2023-12-07T19:23:10;35.45;;;26.38;;
47804;SDS011;33568;45.286;9.900;2023-12-07T19:25:36;40.08;;;28.05;;
47804;SDS011;33568;45.286;9.900;2023-12-07T19:30:31;39.90;;;19.30;;
47804;SDS011;33568;45.286;9.900;2023-12-07T19:32:58;34.95;;;19.33;;
47804;SDS011;33568;45.286;9.900;2023-12-07T19:35:28;35.17;;;24.80;;
47804;SDS011;33568;45.286;9.900;2023-12-07T19:37:55;36.67;;;23.40;;
47804;SDS011;33568;45.286;9.900;2023-12-07T19:40:21;39.58;;;21.90;;
47804;SDS011;33568;45.286;9.900;2023-12-07T19:42:47;27.63;;;20.33;;
47804;SDS011;33568;45.286;9.900;2023-12-07T19:47:40;24.95;;;17.70;;
47804;SDS011;33568;45.286;9.900;2023-12-07T19:52:36;41.22;;;25.15;;
47804;SDS011;33568;45.286;9.900;2023-12-07T19:55:02;44.28;;;28.42;;
47804;SDS011;33568;45.286;9.900;2023-12-07T19:57:32;43.22;;;28.98;;
47804;SDS011;33568;45.286;9.900;2023-12-07T19:59:59;36.45;;;27.92;;
47804;SDS011;33568;45.286;9.900;2023-12-07T20:02:26;37.47;;;27.98;;
47804;SDS011;33568;45.286;9.900;2023-12-07T20:04:52;36.33;;;26.00;;
47804;SDS011;33568;45.286;9.900;2023-12-07T20:09:45;39.20;;;24.48;;
47804;SDS011;33568;45.286;9.900;2023-12-07T20:12:12;35.58;;;24.65;;
47804;SDS011;33568;45.286;9.900;2023-12-07T20:14:38;40.38;;;27.20;;
47804;SDS011;33568;45.286;9.900;2023-12-07T20:19:32;46.15;;;27.98;;
47804;SDS011;33568;45.286;9.900;2023-12-07T20:22:00;48.00;;;32.30;;
47804;SDS011;33568;45.286;9.900;2023-12-07T20:24:26;48.65;;;32.90;;
47804;SDS011;33568;45.286;9.900;2023-12-07T20:26:53;42.72;;;31.50;;
47804;SDS011;33568;45.286;9.900;2023-12-07T20:29:19;42.05;;;29.90;;
47804;SDS011;33568;45.286;9.900;2023-12-07T20:31:46;41.60;;;30.15;;
47804;SDS011;33568;45.286;9.900;2023-12-07T20:34:13;37.70;;;29.52;;
47804;SDS011;33568;45.286;9.900;2023-12-07T20:36:39;39.38;;;30.80;;
47804;SDS011;33568;45.286;9.900;2023-12-07T20:39:06;40.28;;;30.52;;
47804;SDS011;33568;45.286;9.900;2023-12-07T20:43:58;37.17;;;26.70;;
47804;SDS011;33568;45.286;9.900;2023-12-07T20:48:51;32.85;;;23.88;;
47804;SDS011;33568;45.286;9.900;2023-12-07T20:51:18;32.80;;;25.65;;
47804;SDS011;33568;45.286;9.900;2023-12-07T20:53:44;38.47;;;26.67;;
47804;SDS011;33568;45.286;9.900;2023-12-07T20:56:11;33.65;;;24.27;;
47804;SDS011;33568;45.286;9.900;2023-12-07T20:58:38;31.65;;;23.55;;
47804;SDS011;33568;45.286;9.900;2023-12-07T21:01:04;37.90;;;25.25;;
47804;SDS011;33568;45.286;9.900;2023-12-07T21:03:31;35.00;;;25.27;;
47804;SDS011;33568;45.286;9.900;2023-12-07T21:05:58;37.90;;;27.88;;
47804;SDS011;33568;45.286;9.900;2023-12-07T21:08:25;41.22;;;30.80;;
47804;SDS011;33568;45.286;9.900;2023-12-07T21:10:51;42.28;;;29.55;;
47804;SDS011;33568;45.286;9.900;2023-12-07T21:15:44;51.78;;;31.55;;
47804;SDS011;33568;45.286;9.900;2023-12-07T21:18:10;46.42;;;33.08;;
47804;SDS011;33568;45.286;9.900;2023-12-07T21:20:39;50.83;;;33.65;;
47804;SDS011;33568;45.286;9.900;2023-12-07T21:23:05;51.88;;;34.60;;
47804;SDS011;33568;45.286;9.900;2023-12-07T21:25:32;49.40;;;35.80;;
47804;SDS011;33568;45.286;9.900;2023-12-07T21:30:24;61.20;;;38.20;;
47804;SDS011;33568;45.286;9.900;2023-12-07T21:35:17;58.50;;;35.42;;
47804;SDS011;33568;45.286;9.900;2023-12-07T21:37:44;54.00;;;36.85;;
47804;SDS011;33568;45.286;9.900;2023-12-07T21:40:10;50.22;;;35.13;;
47804;SDS011;33568;45.286;9.900;2023-12-07T21:42:37;45.05;;;34.53;;
47804;SDS011;33568;45.286;9.900;2023-12-07T21:45:04;43.35;;;33.28;;
47804;SDS011;33568;45.286;9.900;2023-12-07T21:47:31;51.00;;;33.35;;
47804;SDS011;33568;45.286;9.900;2023-12-07T21:49:57;50.13;;;35.25;;
47804;SDS011;33568;45.286;9.900;2023-12-07T21:52:23;53.08;;;37.10;;
47804;SDS011;33568;45.286;9.900;2023-12-07T21:54:50;62.92;;;43.53;;
47804;SDS011;33568;45.286;9.900;2023-12-07T21:57:16;65.30;;;48.60;;
47804;SDS011;33568;45.286;9.900;2023-12-07T21:59:43;79.40;;;57.22;;
47804;SDS011;33568;45.286;9.900;2023-12-07T22:02:09;84.03;;;59.30;;
47804;SDS011;33568;45.286;9.900;2023-12-07T22:07:02;64.85;;;48.38;;
47804;SDS011;33568;45.286;9.900;2023-12-07T22:09:30;73.95;;;51.47;;
47804;SDS011;33568;45.286;9.900;2023-12-07T22:11:57;78.75;;;53.28;;
47804;SDS011;33568;45.286;9.900;2023-12-07T22:14:23;69.28;;;48.63;;
47804;SDS011;33568;45.286;9.900;2023-12-07T22:16:49;65.07;;;46.15;;
47804;SDS011;33568;45.286;9.900;2023-12-07T22:19:16;56.78;;;40.35;;
47804;SDS011;33568;45.286;9.900;2023-12-07T22:24:08;50.15;;;33.35;;
47804;SDS011;33568;45.286;9.900;2023-12-07T22:26:35;50.50;;;34.40;;
47804;SDS011;33568;45.286;9.900;2023-12-07T22:29:01;50.40;;;35.65;;
47804;SDS011;33568;45.286;9.900;2023-12-07T22:31:28;47.03;;;35.83;;
47804;SDS011;33568;45.286;9.900;2023-12-07T22:33:54;52.25;;;35.78;;
47804;SDS011;33568;45.286;9.900;2023-12-07T22:36:20;52.17;;;36.30;;
47804;SDS011;33568;45.286;9.900;2023-12-07T22:38:50;49.90;;;37.45;;
47804;SDS011;33568;45.286;9.900;2023-12-07T22:41:16;48.38;;;33.53;;
47804;SDS011;33568;45.286;9.900;2023-12-07T22:43:43;49.00;;;33.05;;
47804;SDS011;33568;45.286;9.900;2023-12-07T22:46:09;43.58;;;32.45;;
47804;SDS011;33568;45.286;9.900;2023-12-07T22:48:36;46.05;;;33.53;;
47804;SDS011;33568;45.286;9.900;2023-12-07T22:51:02;43.40;;;31.98;;
47804;SDS011;33568;45.286;9.900;2023-12-07T22:55:55;44.92;;;30.77;;
47804;SDS011;33568;45.286;9.900;2023-12-07T22:58:21;44.50;;;34.28;;
47804;SDS011;33568;45.286;9.900;2023-12-07T23:00:48;45.65;;;34.60;;
47804;SDS011;33568;45.286;9.900;2023-12-07T23:03:15;49.03;;;35.72;;
47804;SDS011;33568;45.286;9.900;2023-12-07T23:05:41;47.85;;;33.75;;
47804;SDS011;33568;45.286;9.900;2023-12-07T23:08:09;44.47;;;31.60;;
47804;SDS011;33568;45.286;9.900;2023-12-07T23:10:35;42.10;;;33.35;;
47804;SDS011;33568;45.286;9.900;2023-12-07T23:15:28;42.83;;;31.52;;
47804;SDS011;33568;45.286;9.900;2023-12-07T23:17:54;42.03;;;30.67;;
47804;SDS011;33568;45.286;9.900;2023-12-07T23:20:21;43.28;;;32.80;;
47804;SDS011;33568;45.286;9.900;2023-12-07T23:22:47;40.20;;;30.67;;